Time;durP1;ratioP1;P1;durP2;ratioP2;P2;SDS_P1;SDS_P2;PMS_P1;PMS_P2;Temp;Humidity;BMP_temperature;BMP_pressure;BME280_temperature;BME280_humidity;BME280_pressure;Samples;Min_cycle;Max_cycle;Signal;HPM_P1;HPM_P2
2021/06/11 00:00:38;;;;;;;17.60;16.10;;;14.50;80.00;;;;;;5217673;28;20045;-78
2021/06/11 00:03:10;;;;;;;17.63;16.23;;;14.40;80.10;;;;;;5216182;28;20073;-78
2021/06/11 00:05:42;;;;;;;17.45;16.05;;;14.40;80.30;;;;;;5217904;28;20129;-78
2021/06/11 00:08:14;;;;;;;17.70;16.30;;;14.40;80.20;;;;;;5199361;28;20136;-78
2021/06/11 00:10:46;;;;;;;16.90;15.70;;;14.40;80.40;;;;;;5217336;28;20051;-77
2021/06/11 00:13:24;;;;;;;17.73;16.33;;;14.30;80.60;;;;;;5217110;28;20125;-78
2021/06/11 00:15:56;;;;;;;18.08;16.67;;;14.30;80.10;;;;;;5217367;28;20071;-78
2021/06/11 00:18:28;;;;;;;17.60;16.20;;;14.30;80.40;;;;;;5217315;28;20048;-78
2021/06/11 00:21:00;;;;;;;17.42;16.13;;;14.30;80.70;;;;;;5215758;28;20069;-79
2021/06/11 00:23:32;;;;;;;17.27;15.98;;;14.30;80.20;;;;;;5199962;28;20464;-78
2021/06/11 00:26:04;;;;;;;17.48;16.17;;;14.30;80.40;;;;;;5216470;28;20142;-78
2021/06/11 00:28:36;;;;;;;17.52;16.23;;;14.30;81.10;;;;;;5197422;28;20465;-78
2021/06/11 00:31:08;;;;;;;17.52;16.13;;;14.20;80.90;;;;;;5215761;28;20068;-78
2021/06/11 00:33:40;;;;;;;17.92;16.45;;;14.20;81.70;;;;;;5216554;28;20051;-78
2021/06/11 00:36:12;;;;;;;17.50;16.20;;;14.20;81.20;;;;;;5215960;28;20064;-79
2021/06/11 00:38:44;;;;;;;17.77;16.30;;;14.10;81.40;;;;;;5215243;28;20130;-77
2021/06/11 00:41:16;;;;;;;17.20;15.90;;;14.10;80.90;;;;;;5215847;28;20377;-77
2021/06/11 00:43:48;;;;;;;18.20;16.90;;;14.10;81.20;;;;;;5215897;28;20037;-78
2021/06/11 00:46:20;;;;;;;17.50;16.10;;;14.10;81.60;;;;;;5216117;28;20111;-78
2021/06/11 00:48:52;;;;;;;18.10;16.80;;;14.10;81.90;;;;;;5216933;28;20130;-78
2021/06/11 00:51:24;;;;;;;17.95;16.65;;;14.00;81.60;;;;;;5214791;28;20095;-77
2021/06/11 00:53:56;;;;;;;17.65;16.35;;;14.00;81.80;;;;;;5216286;28;20041;-78
2021/06/11 00:56:36;;;;;;;18.02;16.63;;;13.90;82.00;;;;;;5215700;28;21147;-78
2021/06/11 00:59:10;;;;;;;18.23;16.83;;;13.90;82.10;;;;;;5216362;28;20045;-79
2021/06/11 01:01:42;;;;;;;18.77;17.38;;;13.90;81.80;;;;;;5216079;28;20087;-79
2021/06/11 01:04:14;;;;;;;17.95;16.65;;;13.90;81.60;;;;;;5199477;28;20041;-79
2021/06/11 01:06:48;;;;;;;17.77;16.48;;;13.90;81.40;;;;;;5212989;28;20051;-78
2021/06/11 01:09:20;;;;;;;18.50;16.95;;;13.90;81.00;;;;;;5217112;28;20037;-79
2021/06/11 01:11:52;;;;;;;17.83;16.52;;;13.90;81.00;;;;;;5214017;28;20053;-79
2021/06/11 01:14:25;;;;;;;17.92;16.60;;;13.80;80.90;;;;;;5197777;28;20611;-78
2021/06/11 01:16:57;;;;;;;17.80;16.50;;;13.70;81.50;;;;;;5215778;28;20072;-79
2021/06/11 01:19:43;;;;;;;17.85;16.48;;;13.70;81.60;;;;;;5216836;28;20067;-79
2021/06/11 01:22:21;;;;;;;17.83;16.52;;;13.60;81.80;;;;;;5187776;28;20041;-79
2021/06/11 01:25:05;;;;;;;18.55;17.00;;;13.60;81.80;;;;;;5198398;28;20072;-80
2021/06/11 01:27:40;;;;;;;17.83;16.52;;;13.60;81.70;;;;;;5215464;28;20052;-80
2021/06/11 01:30:25;;;;;;;18.15;16.85;;;13.60;81.30;;;;;;5216850;28;20091;-80
2021/06/11 01:32:59;;;;;;;17.75;16.45;;;13.60;81.50;;;;;;5215952;28;20041;-79
2021/06/11 01:35:45;;;;;;;17.98;16.58;;;13.60;81.40;;;;;;5216755;28;20037;-79
2021/06/11 01:38:21;;;;;;;17.73;16.35;;;13.60;81.30;;;;;;5216626;28;20098;-79
2021/06/11 01:40:54;;;;;;;17.80;16.50;;;13.60;81.70;;;;;;5216088;28;20144;-80
2021/06/11 01:43:27;;;;;;;17.85;16.48;;;13.60;81.20;;;;;;5220517;28;20037;-80
2021/06/11 01:45:59;;;;;;;18.35;16.95;;;13.60;80.90;;;;;;5202088;28;20056;-80
2021/06/11 01:48:33;;;;;;;18.40;16.98;;;13.60;81.80;;;;;;5203303;28;20114;-78
2021/06/11 01:51:07;;;;;;;18.85;17.35;;;13.60;81.20;;;;;;5220153;28;20512;-77
2021/06/11 01:53:41;;;;;;;17.92;16.63;;;13.50;81.20;;;;;;5219915;28;20085;-78
2021/06/11 01:56:17;;;;;;;18.13;16.70;;;13.50;81.10;;;;;;5219581;28;20583;-78
2021/06/11 01:58:50;;;;;;;19.25;17.48;;;13.50;80.90;;;;;;5219335;28;20345;-77
2021/06/11 02:01:23;;;;;;;18.40;16.92;;;13.50;80.80;;;;;;5219475;28;20049;-77
2021/06/11 02:03:55;;;;;;;18.38;17.00;;;13.50;80.60;;;;;;5218786;28;20041;-77
2021/06/11 02:06:28;;;;;;;18.42;17.02;;;13.50;80.50;;;;;;5219603;28;20704;-76
2021/06/11 02:09:00;;;;;;;17.92;16.63;;;13.50;80.40;;;;;;5219860;28;20098;-77
2021/06/11 02:11:34;;;;;;;18.00;16.70;;;13.50;80.50;;;;;;5218827;28;20049;-77
2021/06/11 02:14:08;;;;;;;17.90;16.45;;;13.40;80.80;;;;;;5219364;28;20077;-77
2021/06/11 02:16:42;;;;;;;17.77;16.45;;;13.40;80.80;;;;;;5218531;28;20060;-78
2021/06/11 02:19:14;;;;;;;18.80;17.38;;;13.40;81.60;;;;;;5220869;28;20147;-78
2021/06/11 02:21:47;;;;;;;18.00;16.60;;;13.40;81.70;;;;;;5218040;28;20048;-77
2021/06/11 02:24:20;;;;;;;18.05;16.75;;;13.30;82.50;;;;;;5220505;28;20128;-76
2021/06/11 02:26:54;;;;;;;18.45;17.05;;;13.30;82.10;;;;;;5219687;28;20527;-78
2021/06/11 02:29:25;;;;;;;18.50;17.10;;;13.20;82.40;;;;;;5219810;28;20170;-77
2021/06/11 02:31:57;;;;;;;18.70;17.30;;;13.20;82.60;;;;;;5201190;28;20076;-76
2021/06/11 02:34:30;;;;;;;18.63;17.23;;;13.10;82.60;;;;;;5218416;28;20048;-77
2021/06/11 02:37:03;;;;;;;18.77;17.27;;;13.00;82.50;;;;;;5217263;28;20072;-76
2021/06/11 02:39:35;;;;;;;18.77;17.27;;;13.00;82.70;;;;;;5194765;28;20140;-76
2021/06/11 02:42:08;;;;;;;18.00;16.67;;;13.00;82.60;;;;;;5218280;28;20045;-77
2021/06/11 02:44:45;;;;;;;17.98;16.55;;;13.00;82.70;;;;;;5217963;28;20123;-76
2021/06/11 02:47:35;;;;;;;18.58;17.15;;;13.00;82.40;;;;;;5218788;28;20517;-77
2021/06/11 02:50:12;;;;;;;18.65;17.25;;;13.10;82.60;;;;;;5200776;28;20090;-76
2021/06/11 02:52:47;;;;;;;17.88;16.52;;;13.00;82.30;;;;;;5200159;28;20102;-77
2021/06/11 02:55:21;;;;;;;18.05;16.65;;;13.00;82.50;;;;;;5218937;28;20034;-76
2021/06/11 02:58:04;;;;;;;18.98;17.52;;;13.00;82.50;;;;;;5219750;28;20087;-76
2021/06/11 03:00:38;;;;;;;18.42;16.90;;;13.00;82.10;;;;;;5219059;28;20128;-76
2021/06/11 03:03:23;;;;;;;18.27;16.98;;;13.00;82.10;;;;;;5217628;28;20051;-75
2021/06/11 03:05:59;;;;;;;18.05;16.70;;;13.00;81.60;;;;;;5217772;28;20037;-76
2021/06/11 03:08:34;;;;;;;18.15;16.63;;;13.00;81.50;;;;;;5219158;28;20048;-76
2021/06/11 03:11:11;;;;;;;18.35;16.83;;;13.00;81.30;;;;;;5217754;28;20993;-76
2021/06/11 03:13:43;;;;;;;18.08;16.73;;;13.00;81.30;;;;;;5218736;28;20053;-76
2021/06/11 03:16:15;;;;;;;19.23;17.70;;;12.90;81.30;;;;;;5217757;28;20053;-77
2021/06/11 03:18:55;;;;;;;17.95;16.65;;;13.00;81.40;;;;;;5217263;28;20041;-75
2021/06/11 03:21:39;;;;;;;18.58;17.08;;;12.90;81.40;;;;;;5217914;28;20073;-77
2021/06/11 03:24:17;;;;;;;17.83;16.52;;;12.90;81.70;;;;;;5219003;28;20522;-76
2021/06/11 03:26:59;;;;;;;18.17;16.77;;;12.90;81.30;;;;;;5217540;28;20059;-76
2021/06/11 03:29:43;;;;;;;18.38;16.98;;;12.90;81.80;;;;;;5201052;28;20431;-75
2021/06/11 03:32:24;;;;;;;18.50;17.15;;;12.90;82.20;;;;;;5217610;28;20064;-75
2021/06/11 03:35:07;;;;;;;18.58;17.17;;;12.80;82.30;;;;;;5218469;28;20780;-75
2021/06/11 03:37:40;;;;;;;19.27;17.55;;;12.70;83.00;;;;;;5217328;28;20079;-75
2021/06/11 03:40:15;;;;;;;18.25;16.90;;;12.60;83.00;;;;;;5191543;28;20048;-75
2021/06/11 03:42:47;;;;;;;18.40;17.00;;;12.60;83.10;;;;;;5217570;28;20041;-75
2021/06/11 03:45:21;;;;;;;17.65;16.25;;;12.60;83.00;;;;;;5217441;28;20153;-75
2021/06/11 03:47:54;;;;;;;18.20;16.90;;;12.70;82.70;;;;;;5219041;28;20025;-75
2021/06/11 03:50:28;;;;;;;17.80;16.50;;;12.70;82.70;;;;;;5217319;28;20629;-76
2021/06/11 03:53:03;;;;;;;18.00;16.55;;;12.70;83.40;;;;;;5217755;28;20544;-77
2021/06/11 03:55:40;;;;;;;17.83;16.52;;;12.70;82.20;;;;;;5199874;28;20041;-76
2021/06/11 03:58:27;;;;;;;17.65;16.30;;;12.80;82.30;;;;;;5193059;28;20136;-76
2021/06/11 04:01:02;;;;;;;17.40;16.10;;;12.70;81.90;;;;;;5216991;28;20037;-77
2021/06/11 04:03:39;;;;;;;17.50;16.17;;;12.80;81.80;;;;;;5217409;28;20531;-76
2021/06/11 04:06:15;;;;;;;16.80;15.60;;;12.80;82.20;;;;;;5216699;28;20139;-76
2021/06/11 04:08:59;;;;;;;16.75;15.55;;;12.80;81.80;;;;;;5216627;28;20448;-75
2021/06/11 04:11:34;;;;;;;16.98;15.77;;;12.80;81.60;;;;;;5217595;28;20095;-76
2021/06/11 04:14:07;;;;;;;17.17;15.75;;;12.80;81.40;;;;;;5216863;28;20048;-76
2021/06/11 04:16:44;;;;;;;16.73;15.52;;;12.80;81.50;;;;;;5198613;28;20132;-77
2021/06/11 04:19:50;;;;;;;17.73;16.42;;;12.80;82.30;;;;;;5217925;28;20056;-76
2021/06/11 04:22:26;;;;;;;17.85;16.25;;;12.80;83.20;;;;;;5215153;28;20056;-75
2021/06/11 04:25:00;;;;;;;18.33;16.95;;;12.80;83.60;;;;;;5199793;28;20134;-76
2021/06/11 04:27:41;;;;;;;17.80;16.50;;;12.80;83.80;;;;;;5193163;28;20123;-75
2021/06/11 04:30:14;;;;;;;17.30;16.02;;;12.80;84.20;;;;;;5215876;28;20519;-75
2021/06/11 04:32:48;;;;;;;17.63;16.33;;;12.80;83.60;;;;;;5196573;28;20049;-75
2021/06/11 04:35:24;;;;;;;17.50;16.20;;;12.90;83.70;;;;;;5216572;28;20098;-74
2021/06/11 04:37:56;;;;;;;17.40;16.10;;;13.00;82.70;;;;;;5217291;28;20029;-77
2021/06/11 04:40:28;;;;;;;17.70;16.15;;;13.10;82.50;;;;;;5199446;28;20064;-77
2021/06/11 04:43:00;;;;;;;17.52;16.23;;;13.20;82.80;;;;;;5216608;28;20040;-77
2021/06/11 04:45:32;;;;;;;17.65;16.35;;;13.30;82.20;;;;;;5214739;28;20053;-76
2021/06/11 04:48:05;;;;;;;17.83;16.40;;;13.40;82.80;;;;;;5217149;28;20045;-76
2021/06/11 04:50:37;;;;;;;17.45;16.15;;;13.50;82.90;;;;;;5216639;28;20047;-75
2021/06/11 04:53:09;;;;;;;17.85;16.45;;;13.50;83.10;;;;;;5212217;28;20072;-75
2021/06/11 04:55:41;;;;;;;18.05;16.60;;;13.60;83.30;;;;;;5215557;28;20428;-74
2021/06/11 04:58:17;;;;;;;18.08;16.58;;;13.70;82.90;;;;;;5217189;28;20041;-75
2021/06/11 05:00:49;;;;;;;17.95;16.55;;;13.80;83.50;;;;;;5214337;28;20065;-76
2021/06/11 05:03:21;;;;;;;18.15;16.85;;;13.90;83.60;;;;;;5197144;28;20076;-77
2021/06/11 05:05:53;;;;;;;17.35;16.05;;;14.00;83.10;;;;;;5198083;28;20162;-76
2021/06/11 05:08:25;;;;;;;17.52;16.17;;;14.00;84.10;;;;;;5216216;28;20134;-75
2021/06/11 05:10:59;;;;;;;17.70;16.40;;;14.10;83.50;;;;;;5215719;28;20061;-75
2021/06/11 05:13:31;;;;;;;18.08;16.67;;;14.10;83.20;;;;;;5215105;28;20064;-75
2021/06/11 05:16:03;;;;;;;17.90;16.58;;;14.10;82.80;;;;;;5214971;28;20571;-75
2021/06/11 05:18:35;;;;;;;18.15;16.75;;;14.20;82.40;;;;;;5216097;28;20114;-76
2021/06/11 05:21:07;;;;;;;18.35;16.67;;;14.30;82.20;;;;;;5213287;28;20427;-75
2021/06/11 05:23:39;;;;;;;18.38;16.95;;;14.50;82.00;;;;;;5215699;28;20056;-75
2021/06/11 05:26:11;;;;;;;18.55;17.15;;;14.50;81.50;;;;;;5214561;28;20128;-76
2021/06/11 05:28:43;;;;;;;17.90;16.60;;;14.40;82.30;;;;;;5215476;28;20068;-76
2021/06/11 05:31:15;;;;;;;18.08;16.67;;;14.40;82.40;;;;;;5194930;28;20076;-75
2021/06/11 05:33:47;;;;;;;17.75;16.35;;;14.40;82.30;;;;;;5215515;28;20041;-77
2021/06/11 05:36:19;;;;;;;18.05;16.65;;;14.40;82.30;;;;;;5210269;28;20084;-76
2021/06/11 05:38:51;;;;;;;18.48;17.08;;;14.50;82.60;;;;;;5214535;28;20095;-75
2021/06/11 05:41:23;;;;;;;18.23;16.83;;;14.60;83.00;;;;;;5214321;28;20452;-74
2021/06/11 05:43:55;;;;;;;18.42;17.02;;;14.70;82.60;;;;;;5216487;28;20127;-75
2021/06/11 05:46:32;;;;;;;18.15;16.75;;;14.90;81.80;;;;;;5216569;28;20550;-74
2021/06/11 05:49:04;;;;;;;18.70;17.30;;;15.10;82.10;;;;;;5199245;28;20723;-75
2021/06/11 05:51:36;;;;;;;19.13;17.38;;;15.10;81.80;;;;;;5215039;28;20041;-75
2021/06/11 05:54:08;;;;;;;19.08;17.58;;;15.10;82.10;;;;;;5215912;28;20471;-75
2021/06/11 05:56:40;;;;;;;18.95;17.38;;;15.30;81.80;;;;;;5216175;28;20041;-76
2021/06/11 05:59:12;;;;;;;18.63;17.13;;;15.40;81.60;;;;;;5215370;28;20452;-74
2021/06/11 06:01:45;;;;;;;18.52;17.17;;;15.50;81.70;;;;;;5214629;28;20156;-76
2021/06/11 06:04:17;;;;;;;18.50;17.05;;;15.50;81.50;;;;;;5216928;28;20064;-75
2021/06/11 06:06:49;;;;;;;18.80;17.40;;;15.50;81.60;;;;;;5216362;28;20455;-75
2021/06/11 06:09:21;;;;;;;18.42;17.02;;;15.50;81.50;;;;;;5217178;28;20084;-74
2021/06/11 06:11:53;;;;;;;18.98;17.58;;;15.50;81.00;;;;;;5188932;28;20426;-75
2021/06/11 06:14:25;;;;;;;19.70;17.70;;;15.60;81.30;;;;;;5215988;28;20127;-75
2021/06/11 06:16:57;;;;;;;18.40;17.00;;;15.60;81.10;;;;;;5214701;28;20463;-75
2021/06/11 06:19:29;;;;;;;18.75;17.35;;;15.60;81.10;;;;;;5215804;28;20045;-75
2021/06/11 06:22:01;;;;;;;19.33;17.80;;;15.70;81.20;;;;;;5196799;28;20045;-75
2021/06/11 06:24:33;;;;;;;18.40;17.10;;;15.80;81.00;;;;;;5199691;28;20033;-75
2021/06/11 06:27:05;;;;;;;19.13;17.48;;;15.80;81.20;;;;;;5217329;28;20524;-74
2021/06/11 06:29:37;;;;;;;18.90;17.58;;;15.90;81.00;;;;;;5220422;28;20045;-74
2021/06/11 06:32:09;;;;;;;20.27;18.35;;;16.00;80.60;;;;;;5219281;28;20084;-75
2021/06/11 06:34:41;;;;;;;19.73;18.23;;;16.30;80.20;;;;;;5221016;28;20045;-75
2021/06/11 06:37:14;;;;;;;19.77;18.27;;;16.50;79.60;;;;;;5219758;28;20095;-75
2021/06/11 06:39:46;;;;;;;19.77;18.35;;;16.60;79.40;;;;;;5220587;28;20068;-76
2021/06/11 06:42:18;;;;;;;20.05;18.58;;;16.80;78.10;;;;;;5218228;28;20118;-76
2021/06/11 06:44:50;;;;;;;19.50;17.95;;;16.80;78.00;;;;;;5220015;28;20037;-75
2021/06/11 06:47:23;;;;;;;19.60;18.20;;;17.00;77.00;;;;;;5220207;28;20060;-75
2021/06/11 06:49:55;;;;;;;19.30;17.90;;;17.10;76.00;;;;;;5220166;28;20045;-75
2021/06/11 06:52:27;;;;;;;19.50;18.10;;;17.20;76.40;;;;;;5219064;28;20076;-75
2021/06/11 06:54:59;;;;;;;18.67;17.17;;;17.30;76.30;;;;;;5219342;28;20071;-75
2021/06/11 06:57:30;;;;;;;19.30;17.90;;;17.50;75.10;;;;;;5219788;28;20052;-75
2021/06/11 07:00:07;;;;;;;19.13;17.63;;;17.60;76.10;;;;;;5219317;28;20056;-75
2021/06/11 07:02:39;;;;;;;18.63;17.33;;;17.70;75.50;;;;;;5201798;28;20102;-75
2021/06/11 07:05:14;;;;;;;18.63;17.33;;;17.80;76.50;;;;;;5219202;28;20053;-75
2021/06/11 07:07:46;;;;;;;18.63;17.30;;;18.00;75.10;;;;;;5219593;28;20049;-75
2021/06/11 07:10:18;;;;;;;18.70;17.30;;;18.20;74.80;;;;;;5220168;28;20056;-76
2021/06/11 07:12:50;;;;;;;18.67;17.38;;;18.30;73.30;;;;;;5201792;28;20072;-76
2021/06/11 07:15:22;;;;;;;19.65;18.15;;;18.50;74.20;;;;;;5201331;28;20090;-76
2021/06/11 07:17:57;;;;;;;18.73;17.42;;;18.60;74.00;;;;;;5219165;28;20065;-76
2021/06/11 07:20:29;;;;;;;19.55;18.15;;;18.70;74.00;;;;;;5192856;28;20041;-76
2021/06/11 07:23:01;;;;;;;19.50;18.10;;;18.70;74.00;;;;;;5201279;28;20068;-76
2021/06/11 07:25:32;;;;;;;19.10;17.70;;;18.80;72.80;;;;;;5219725;28;20045;-76
2021/06/11 07:28:04;;;;;;;19.42;18.02;;;18.90;73.00;;;;;;5219134;28;20045;-76
2021/06/11 07:30:37;;;;;;;19.30;17.90;;;19.00;72.50;;;;;;5219181;28;20102;-76
2021/06/11 07:33:09;;;;;;;19.35;17.95;;;19.10;72.60;;;;;;5219081;28;20067;-76
2021/06/11 07:35:41;;;;;;;19.63;18.23;;;19.20;72.00;;;;;;5217992;28;20110;-76
2021/06/11 07:38:13;;;;;;;19.17;17.67;;;19.30;71.50;;;;;;5217989;28;20037;-76
2021/06/11 07:41:03;;;;;;;19.15;17.75;;;19.30;69.70;;;;;;5189261;28;20107;-75
2021/06/11 07:43:35;;;;;;;19.48;18.08;;;19.40;71.30;;;;;;5218409;28;20060;-76
2021/06/11 07:46:07;;;;;;;19.33;17.77;;;19.50;71.00;;;;;;5219364;28;20103;-76
2021/06/11 07:48:39;;;;;;;20.17;18.73;;;19.60;71.10;;;;;;5219117;28;20098;-76
2021/06/11 07:51:11;;;;;;;19.85;18.30;;;19.70;69.80;;;;;;5217770;28;20081;-75
2021/06/11 07:53:43;;;;;;;19.73;18.33;;;19.80;67.60;;;;;;5219180;28;20502;-75
2021/06/11 07:56:15;;;;;;;18.98;17.50;;;19.80;67.20;;;;;;5217893;28;20045;-74
2021/06/11 07:58:47;;;;;;;19.30;17.90;;;19.90;66.00;;;;;;5218320;28;20036;-76
2021/06/11 08:01:19;;;;;;;19.55;17.80;;;20.10;65.90;;;;;;5217526;28;20195;-76
2021/06/11 08:03:52;;;;;;;20.02;18.52;;;20.20;66.50;;;;;;5200989;28;20049;-75
2021/06/11 08:06:24;;;;;;;19.40;17.80;;;20.30;68.00;;;;;;5218402;28;20130;-76
2021/06/11 08:08:55;;;;;;;19.60;18.10;;;20.40;68.50;;;;;;5219914;28;20041;-75
2021/06/11 08:11:27;;;;;;;19.20;17.70;;;20.50;65.40;;;;;;5198656;28;20045;-76
2021/06/11 08:13:59;;;;;;;19.10;17.70;;;20.60;64.70;;;;;;5219861;28;20143;-75
2021/06/11 08:16:31;;;;;;;19.30;17.90;;;20.70;66.80;;;;;;5219326;28;20072;-75
2021/06/11 08:19:03;;;;;;;19.25;17.85;;;20.70;65.50;;;;;;5220733;28;20121;-76
2021/06/11 08:21:35;;;;;;;19.17;17.77;;;20.60;65.40;;;;;;5218449;28;20498;-76
2021/06/11 08:24:08;;;;;;;19.02;17.63;;;20.70;65.40;;;;;;5219954;28;20072;-75
2021/06/11 08:26:40;;;;;;;19.52;18.13;;;20.80;63.90;;;;;;5219415;28;20103;-77
2021/06/11 08:29:11;;;;;;;18.95;17.55;;;20.90;66.90;;;;;;5220315;28;20081;-77
2021/06/11 08:31:44;;;;;;;19.10;17.70;;;21.00;62.90;;;;;;5218440;28;20458;-77
2021/06/11 08:34:17;;;;;;;20.02;18.52;;;21.10;65.30;;;;;;5219741;28;20057;-77
2021/06/11 08:36:49;;;;;;;20.02;18.45;;;21.30;63.70;;;;;;5200668;28;20099;-77
2021/06/11 08:39:20;;;;;;;19.42;18.02;;;21.40;63.50;;;;;;5219548;28;20072;-77
2021/06/11 08:41:53;;;;;;;19.95;18.55;;;21.40;61.80;;;;;;5200483;28;20381;-76
2021/06/11 08:44:27;;;;;;;20.45;18.85;;;21.50;63.00;;;;;;5219395;28;20126;-76
2021/06/11 08:46:59;;;;;;;19.77;18.38;;;21.50;62.20;;;;;;5200734;28;20106;-76
2021/06/11 08:49:30;;;;;;;20.10;18.50;;;21.50;65.00;;;;;;5218877;28;20052;-77
2021/06/11 08:52:03;;;;;;;19.63;18.13;;;21.50;64.20;;;;;;5217897;28;20092;-77
2021/06/11 08:54:35;;;;;;;20.35;18.85;;;21.50;62.00;;;;;;5218450;28;20063;-77
2021/06/11 08:57:10;;;;;;;19.98;18.38;;;21.60;62.90;;;;;;5218589;28;20535;-77
2021/06/11 08:59:44;;;;;;;19.42;18.02;;;21.70;61.50;;;;;;5219109;28;20563;-77
2021/06/11 09:02:16;;;;;;;20.13;18.40;;;21.80;60.00;;;;;;5217669;28;20837;-76
2021/06/11 09:04:55;;;;;;;19.10;17.70;;;21.80;57.60;;;;;;5201509;28;20056;-75
2021/06/11 09:07:34;;;;;;;19.83;18.23;;;21.80;58.30;;;;;;5218482;28;20175;-76
2021/06/11 09:10:09;;;;;;;20.25;18.85;;;21.90;59.20;;;;;;5218416;28;20045;-77
2021/06/11 09:12:44;;;;;;;20.35;18.75;;;22.10;61.00;;;;;;5201365;28;20183;-77
2021/06/11 09:15:19;;;;;;;20.15;18.67;;;22.20;60.30;;;;;;5200541;28;20051;-77
2021/06/11 09:17:53;;;;;;;20.02;18.63;;;22.20;59.80;;;;;;5219508;28;20115;-77
2021/06/11 09:20:40;;;;;;;20.80;19.30;;;22.30;60.50;;;;;;5217839;28;20048;-76
2021/06/11 09:23:12;;;;;;;20.80;19.30;;;22.40;61.10;;;;;;5217961;28;20033;-76
2021/06/11 09:25:46;;;;;;;21.33;19.83;;;22.50;61.70;;;;;;5217389;28;20159;-77
2021/06/11 09:28:26;;;;;;;20.60;19.02;;;22.60;61.20;;;;;;5218136;28;20102;-76
2021/06/11 09:30:58;;;;;;;21.00;19.50;;;22.60;59.10;;;;;;5217421;28;20897;-77
2021/06/11 09:33:41;;;;;;;20.75;19.25;;;22.70;59.40;;;;;;5217815;28;20045;-77
2021/06/11 09:36:14;;;;;;;21.25;19.55;;;22.80;59.00;;;;;;5217966;28;20065;-77
2021/06/11 09:38:47;;;;;;;20.15;18.67;;;22.80;58.50;;;;;;5218458;28;20036;-76
2021/06/11 09:41:19;;;;;;;21.20;19.70;;;22.90;57.50;;;;;;5217248;28;20843;-77
2021/06/11 09:43:56;;;;;;;21.50;19.90;;;23.00;52.60;;;;;;5218648;28;20041;-77
2021/06/11 09:46:45;;;;;;;20.70;19.20;;;23.00;56.10;;;;;;5217123;28;20049;-77
2021/06/11 09:49:17;;;;;;;21.00;19.27;;;23.00;55.30;;;;;;5213505;28;20422;-78
2021/06/11 09:52:05;;;;;;;21.00;19.40;;;23.00;52.80;;;;;;5213882;28;20049;-76
2021/06/11 09:54:38;;;;;;;21.23;19.67;;;23.10;56.60;;;;;;5214538;28;20040;-78
2021/06/11 09:57:24;;;;;;;21.48;19.98;;;23.20;52.90;;;;;;5214892;28;20048;-77
2021/06/11 09:59:56;;;;;;;21.05;19.55;;;23.20;54.60;;;;;;5214612;28;20138;-78
2021/06/11 10:02:31;;;;;;;22.65;20.98;;;23.30;53.90;;;;;;5216198;28;20128;-77
2021/06/11 10:05:04;;;;;;;22.42;20.80;;;23.40;54.90;;;;;;5203582;28;20057;-78
2021/06/11 10:07:36;;;;;;;22.33;20.63;;;23.40;53.90;;;;;;5203764;28;20052;-78
2021/06/11 10:10:09;;;;;;;21.77;19.92;;;23.60;54.50;;;;;;5219943;28;20478;-79
2021/06/11 10:12:41;;;;;;;22.15;20.45;;;23.70;54.90;;;;;;5221113;28;20414;-78
2021/06/11 10:15:15;;;;;;;22.08;20.35;;;23.70;53.60;;;;;;5219355;28;20063;-78
2021/06/11 10:17:47;;;;;;;21.92;20.33;;;23.90;51.10;;;;;;5218864;28;20064;-78
2021/06/11 10:20:19;;;;;;;22.65;20.95;;;23.80;52.70;;;;;;5200689;28;20116;-78
2021/06/11 10:22:52;;;;;;;22.80;21.10;;;23.90;51.90;;;;;;5219063;28;20041;-75
2021/06/11 10:25:25;;;;;;;22.00;20.40;;;23.80;49.80;;;;;;5201815;28;20530;-76
2021/06/11 10:27:57;;;;;;;22.08;20.38;;;23.90;49.90;;;;;;5219157;28;20037;-76
2021/06/11 10:30:32;;;;;;;22.33;20.70;;;23.80;49.60;;;;;;5218026;28;20451;-77
2021/06/11 10:33:04;;;;;;;22.40;20.80;;;23.90;51.80;;;;;;5202773;28;20071;-77
2021/06/11 10:35:48;;;;;;;22.80;21.08;;;24.00;52.10;;;;;;5217487;28;20094;-78
2021/06/11 10:38:35;;;;;;;21.80;20.20;;;24.00;46.90;;;;;;5218220;28;20425;-77
2021/06/11 10:41:08;;;;;;;22.50;20.70;;;24.00;47.60;;;;;;5219035;28;20044;-76
2021/06/11 10:43:41;;;;;;;22.20;20.60;;;24.10;49.00;;;;;;5218299;28;20390;-76
2021/06/11 10:46:29;;;;;;;22.35;20.55;;;24.20;50.00;;;;;;5198587;28;20037;-77
2021/06/11 10:49:08;;;;;;;21.67;20.08;;;24.40;51.20;;;;;;5217843;28;20055;-77
2021/06/11 10:51:47;;;;;;;21.98;20.38;;;24.40;50.60;;;;;;5216605;28;20033;-77
2021/06/11 10:54:19;;;;;;;22.33;20.73;;;24.40;50.90;;;;;;5218828;28;20057;-78
2021/06/11 10:56:57;;;;;;;22.83;21.10;;;24.50;49.80;;;;;;5199521;28;20133;-78
2021/06/11 10:59:38;;;;;;;21.65;20.05;;;24.50;51.60;;;;;;5215742;28;20079;-77
2021/06/11 11:02:10;;;;;;;21.90;20.20;;;24.60;52.50;;;;;;5216222;28;20056;-77
2021/06/11 11:04:47;;;;;;;21.55;19.95;;;24.60;53.10;;;;;;5218786;28;20103;-78
2021/06/11 11:07:30;;;;;;;21.98;20.38;;;24.60;53.40;;;;;;5215917;28;20890;-78
2021/06/11 11:10:08;;;;;;;22.15;20.55;;;24.70;52.20;;;;;;5195731;28;20060;-76
2021/06/11 11:12:59;;;;;;;23.05;21.35;;;24.90;52.10;;;;;;5217556;28;20037;-79
2021/06/11 11:15:40;;;;;;;23.10;21.20;;;25.00;51.60;;;;;;5217247;28;20532;-77
2021/06/11 11:18:24;;;;;;;23.10;21.25;;;25.10;51.90;;;;;;5214541;28;20128;-77
2021/06/11 11:20:56;;;;;;;22.27;20.67;;;25.20;53.00;;;;;;5218018;28;20037;-76
2021/06/11 11:23:30;;;;;;;22.55;20.80;;;25.00;50.10;;;;;;5216039;28;20151;-77
2021/06/11 11:26:02;;;;;;;22.08;20.40;;;24.80;50.90;;;;;;5215795;28;20958;-77
2021/06/11 11:28:34;;;;;;;22.20;20.60;;;24.70;50.90;;;;;;5218366;28;20127;-77
2021/06/11 11:31:06;;;;;;;22.63;20.83;;;24.60;50.10;;;;;;5217625;28;20625;-77
2021/06/11 11:33:39;;;;;;;22.85;21.15;;;24.70;48.80;;;;;;5217283;28;20156;-77
2021/06/11 11:36:11;;;;;;;23.10;21.40;;;24.70;50.00;;;;;;5216620;28;20119;-78
2021/06/11 11:38:43;;;;;;;22.63;20.92;;;24.70;48.40;;;;;;5217495;28;20702;-78
2021/06/11 11:41:15;;;;;;;22.63;20.92;;;24.90;48.40;;;;;;5210551;28;20958;-77
2021/06/11 11:43:48;;;;;;;22.42;20.73;;;24.80;50.40;;;;;;5215807;28;20040;-78
2021/06/11 11:46:20;;;;;;;23.63;21.80;;;24.70;50.00;;;;;;5181107;28;21078;-78
2021/06/11 11:48:52;;;;;;;23.52;21.60;;;24.60;49.40;;;;;;5218077;28;20045;-78
2021/06/11 11:51:24;;;;;;;23.08;21.23;;;24.50;50.80;;;;;;5216042;28;20060;-77
2021/06/11 11:53:56;;;;;;;22.92;21.13;;;24.60;51.90;;;;;;5199959;28;20163;-78
2021/06/11 11:56:28;;;;;;;23.33;21.40;;;24.60;49.90;;;;;;5217964;28;20110;-76
2021/06/11 11:59:05;;;;;;;22.90;21.10;;;24.40;47.60;;;;;;5217214;28;20116;-75
2021/06/11 12:01:39;;;;;;;22.77;21.08;;;24.40;50.10;;;;;;5216405;28;20041;-75
2021/06/11 12:04:14;;;;;;;23.25;21.55;;;24.70;48.10;;;;;;5217629;28;20041;-76
2021/06/11 12:06:46;;;;;;;23.17;21.38;;;25.00;49.50;;;;;;5215579;28;20040;-77
2021/06/11 12:09:18;;;;;;;22.13;20.42;;;25.10;49.60;;;;;;5217203;28;20086;-77
2021/06/11 12:11:50;;;;;;;21.98;20.38;;;25.20;46.20;;;;;;5199346;28;20513;-77
2021/06/11 12:14:23;;;;;;;22.63;20.83;;;25.20;46.20;;;;;;5213571;28;20830;-76
2021/06/11 12:16:55;;;;;;;23.40;21.60;;;25.10;47.10;;;;;;5217171;28;20564;-75
2021/06/11 12:19:27;;;;;;;23.35;21.55;;;25.30;47.00;;;;;;5216231;28;20036;-77
2021/06/11 12:21:59;;;;;;;22.38;20.77;;;25.50;47.10;;;;;;5197317;28;20095;-77
2021/06/11 12:24:31;;;;;;;22.25;20.55;;;25.70;46.40;;;;;;5198240;28;20065;-77
2021/06/11 12:27:04;;;;;;;22.90;21.20;;;25.60;47.70;;;;;;5198317;28;20124;-77
2021/06/11 12:29:36;;;;;;;22.60;20.80;;;25.40;49.30;;;;;;5215252;28;20715;-76
2021/06/11 12:32:08;;;;;;;22.15;20.52;;;25.30;49.70;;;;;;5215754;28;20057;-76
2021/06/11 12:34:40;;;;;;;22.52;20.83;;;25.20;50.10;;;;;;5217122;28;20040;-77
2021/06/11 12:37:12;;;;;;;23.30;21.50;;;25.00;49.30;;;;;;5198322;28;20041;-77
2021/06/11 12:39:45;;;;;;;23.10;21.40;;;25.20;47.20;;;;;;5199746;28;20037;-76
2021/06/11 12:42:20;;;;;;;22.40;20.67;;;25.10;47.90;;;;;;5213842;28;20040;-78
2021/06/11 12:44:52;;;;;;;22.58;20.77;;;25.20;47.40;;;;;;5199101;28;20174;-78
2021/06/11 12:47:24;;;;;;;22.40;20.70;;;25.30;48.40;;;;;;5214533;28;20048;-78
2021/06/11 12:49:56;;;;;;;22.73;20.92;;;25.40;49.10;;;;;;5217049;28;20056;-77
2021/06/11 12:52:28;;;;;;;22.75;21.05;;;25.70;46.70;;;;;;5213548;28;20437;-78
2021/06/11 12:55:00;;;;;;;22.45;20.80;;;25.90;45.70;;;;;;5213733;28;20482;-78
2021/06/11 12:57:33;;;;;;;23.50;21.70;;;26.00;46.60;;;;;;5215026;28;20744;-78
2021/06/11 13:00:06;;;;;;;22.88;21.17;;;26.10;47.00;;;;;;5215183;28;20057;-77
2021/06/11 13:02:38;;;;;;;23.08;21.38;;;26.20;46.00;;;;;;5212463;28;20033;-78